sensor_id;sensor_type;location;lat;lon;timestamp;temperature;humidity
18103;DHT22;9178;51.120;6.192;2022-08-01T00:01:45;19.80;99.90
18103;DHT22;9178;51.120;6.192;2022-08-01T00:04:12;19.80;99.90
18103;DHT22;9178;51.120;6.192;2022-08-01T00:06:40;19.80;99.90
18103;DHT22;9178;51.120;6.192;2022-08-01T00:09:07;19.80;99.90
18103;DHT22;9178;51.120;6.192;2022-08-01T00:11:34;19.80;99.90
18103;DHT22;9178;51.120;6.192;2022-08-01T00:14:01;19.80;99.90
18103;DHT22;9178;51.120;6.192;2022-08-01T00:16:28;19.70;99.90
18103;DHT22;9178;51.120;6.192;2022-08-01T00:18:55;19.70;99.90
18103;DHT22;9178;51.120;6.192;2022-08-01T00:21:21;19.70;99.90
18103;DHT22;9178;51.120;6.192;2022-08-01T00:23:50;19.70;99.90
18103;DHT22;9178;51.120;6.192;2022-08-01T00:26:16;19.70;99.90
18103;DHT22;9178;51.120;6.192;2022-08-01T00:28:43;19.70;99.90
18103;DHT22;9178;51.120;6.192;2022-08-01T00:31:10;19.70;99.90
18103;DHT22;9178;51.120;6.192;2022-08-01T00:33:37;19.70;99.90
18103;DHT22;9178;51.120;6.192;2022-08-01T00:36:03;19.70;99.90
18103;DHT22;9178;51.120;6.192;2022-08-01T00:38:30;19.70;99.90
18103;DHT22;9178;51.120;6.192;2022-08-01T00:40:58;19.70;99.90
18103;DHT22;9178;51.120;6.192;2022-08-01T00:43:25;19.70;99.90
18103;DHT22;9178;51.120;6.192;2022-08-01T00:45:52;19.70;99.90
18103;DHT22;9178;51.120;6.192;2022-08-01T00:48:19;19.70;99.90
18103;DHT22;9178;51.120;6.192;2022-08-01T00:50:46;19.70;99.90
18103;DHT22;9178;51.120;6.192;2022-08-01T00:53:13;19.70;99.90
18103;DHT22;9178;51.120;6.192;2022-08-01T00:55:40;19.70;99.90
18103;DHT22;9178;51.120;6.192;2022-08-01T00:58:08;19.70;99.90
18103;DHT22;9178;51.120;6.192;2022-08-01T01:00:35;19.60;99.90
18103;DHT22;9178;51.120;6.192;2022-08-01T01:03:02;19.70;99.90
18103;DHT22;9178;51.120;6.192;2022-08-01T01:05:33;19.70;99.90
18103;DHT22;9178;51.120;6.192;2022-08-01T01:08:04;19.60;99.90
18103;DHT22;9178;51.120;6.192;2022-08-01T01:10:40;19.60;99.90
18103;DHT22;9178;51.120;6.192;2022-08-01T01:13:13;19.60;99.90
18103;DHT22;9178;51.120;6.192;2022-08-01T01:15:46;19.60;99.90
18103;DHT22;9178;51.120;6.192;2022-08-01T01:18:17;19.60;99.90
18103;DHT22;9178;51.120;6.192;2022-08-01T01:20:46;19.60;99.90
18103;DHT22;9178;51.120;6.192;2022-08-01T01:23:29;19.60;99.90
18103;DHT22;9178;51.120;6.192;2022-08-01T01:26:15;19.60;99.90
18103;DHT22;9178;51.120;6.192;2022-08-01T01:29:00;19.50;99.90
18103;DHT22;9178;51.120;6.192;2022-08-01T01:31:28;19.50;99.90
18103;DHT22;9178;51.120;6.192;2022-08-01T01:33:58;19.60;99.90
18103;DHT22;9178;51.120;6.192;2022-08-01T01:36:26;19.50;99.90
18103;DHT22;9178;51.120;6.192;2022-08-01T01:38:55;19.60;99.90
18103;DHT22;9178;51.120;6.192;2022-08-01T01:41:23;19.50;99.90
18103;DHT22;9178;51.120;6.192;2022-08-01T01:43:50;19.50;99.90
18103;DHT22;9178;51.120;6.192;2022-08-01T01:46:23;19.50;99.90
18103;DHT22;9178;51.120;6.192;2022-08-01T01:48:54;19.50;99.90
18103;DHT22;9178;51.120;6.192;2022-08-01T01:51:22;19.50;99.90
18103;DHT22;9178;51.120;6.192;2022-08-01T01:53:52;19.50;99.90
18103;DHT22;9178;51.120;6.192;2022-08-01T01:56:20;19.50;99.90
18103;DHT22;9178;51.120;6.192;2022-08-01T01:58:51;19.50;99.90
18103;DHT22;9178;51.120;6.192;2022-08-01T02:01:21;19.50;99.90
18103;DHT22;9178;51.120;6.192;2022-08-01T02:03:50;19.50;99.90
18103;DHT22;9178;51.120;6.192;2022-08-01T02:06:20;19.50;99.90
18103;DHT22;9178;51.120;6.192;2022-08-01T02:08:48;19.50;99.90
18103;DHT22;9178;51.120;6.192;2022-08-01T02:11:14;19.50;99.90
18103;DHT22;9178;51.120;6.192;2022-08-01T02:13:53;19.50;99.90
18103;DHT22;9178;51.120;6.192;2022-08-01T02:16:24;19.50;99.90
18103;DHT22;9178;51.120;6.192;2022-08-01T02:18:51;19.50;99.90
18103;DHT22;9178;51.120;6.192;2022-08-01T02:21:23;19.50;99.90
18103;DHT22;9178;51.120;6.192;2022-08-01T02:23:51;19.50;99.90
18103;DHT22;9178;51.120;6.192;2022-08-01T02:26:19;19.50;99.90
18103;DHT22;9178;51.120;6.192;2022-08-01T02:28:52;19.50;99.90
18103;DHT22;9178;51.120;6.192;2022-08-01T02:31:23;19.50;99.90
18103;DHT22;9178;51.120;6.192;2022-08-01T02:33:55;19.50;99.90
18103;DHT22;9178;51.120;6.192;2022-08-01T02:36:26;19.50;99.90
18103;DHT22;9178;51.120;6.192;2022-08-01T02:38:54;19.50;99.90
18103;DHT22;9178;51.120;6.192;2022-08-01T02:41:24;19.50;99.90
18103;DHT22;9178;51.120;6.192;2022-08-01T02:43:52;19.50;99.90
18103;DHT22;9178;51.120;6.192;2022-08-01T02:46:24;19.50;99.90
18103;DHT22;9178;51.120;6.192;2022-08-01T02:48:53;19.50;99.90
18103;DHT22;9178;51.120;6.192;2022-08-01T02:51:23;19.50;99.90
18103;DHT22;9178;51.120;6.192;2022-08-01T02:53:53;19.40;99.90
18103;DHT22;9178;51.120;6.192;2022-08-01T02:56:21;19.40;99.90
18103;DHT22;9178;51.120;6.192;2022-08-01T02:58:50;19.40;99.90
18103;DHT22;9178;51.120;6.192;2022-08-01T03:01:18;19.40;99.90
18103;DHT22;9178;51.120;6.192;2022-08-01T03:03:47;19.40;99.90
18103;DHT22;9178;51.120;6.192;2022-08-01T03:06:15;19.40;99.90
18103;DHT22;9178;51.120;6.192;2022-08-01T03:08:43;19.40;99.90
18103;DHT22;9178;51.120;6.192;2022-08-01T03:11:12;19.40;99.90
18103;DHT22;9178;51.120;6.192;2022-08-01T03:13:42;19.40;99.90
18103;DHT22;9178;51.120;6.192;2022-08-01T03:16:10;19.40;99.90
18103;DHT22;9178;51.120;6.192;2022-08-01T03:18:39;19.40;99.90
18103;DHT22;9178;51.120;6.192;2022-08-01T03:21:09;19.40;99.90
18103;DHT22;9178;51.120;6.192;2022-08-01T03:23:37;19.40;99.90
18103;DHT22;9178;51.120;6.192;2022-08-01T03:26:05;19.40;99.90
18103;DHT22;9178;51.120;6.192;2022-08-01T03:28:32;19.30;99.90
18103;DHT22;9178;51.120;6.192;2022-08-01T03:31:00;19.30;99.90
18103;DHT22;9178;51.120;6.192;2022-08-01T03:33:28;19.30;99.90
18103;DHT22;9178;51.120;6.192;2022-08-01T03:35:55;19.40;99.90
18103;DHT22;9178;51.120;6.192;2022-08-01T03:38:26;19.40;99.90
18103;DHT22;9178;51.120;6.192;2022-08-01T03:40:58;19.40;99.90
18103;DHT22;9178;51.120;6.192;2022-08-01T03:43:32;19.40;99.90
18103;DHT22;9178;51.120;6.192;2022-08-01T03:46:04;19.30;99.90
18103;DHT22;9178;51.120;6.192;2022-08-01T03:48:37;19.40;99.90
18103;DHT22;9178;51.120;6.192;2022-08-01T03:51:06;19.40;99.90
18103;DHT22;9178;51.120;6.192;2022-08-01T03:53:36;19.40;99.90
18103;DHT22;9178;51.120;6.192;2022-08-01T03:56:04;19.40;99.90
18103;DHT22;9178;51.120;6.192;2022-08-01T03:58:34;19.30;99.90
18103;DHT22;9178;51.120;6.192;2022-08-01T04:01:01;19.40;99.90
18103;DHT22;9178;51.120;6.192;2022-08-01T04:03:28;19.40;99.90
18103;DHT22;9178;51.120;6.192;2022-08-01T04:05:55;19.30;99.90
18103;DHT22;9178;51.120;6.192;2022-08-01T04:08:22;19.40;99.90
18103;DHT22;9178;51.120;6.192;2022-08-01T04:10:50;19.40;99.90
18103;DHT22;9178;51.120;6.192;2022-08-01T04:13:17;19.40;99.90
18103;DHT22;9178;51.120;6.192;2022-08-01T04:15:44;19.40;99.90
18103;DHT22;9178;51.120;6.192;2022-08-01T04:18:10;19.40;99.90
18103;DHT22;9178;51.120;6.192;2022-08-01T04:20:38;19.40;99.90
18103;DHT22;9178;51.120;6.192;2022-08-01T04:23:05;19.40;99.90
18103;DHT22;9178;51.120;6.192;2022-08-01T04:25:34;19.40;99.90
18103;DHT22;9178;51.120;6.192;2022-08-01T04:28:04;19.40;99.90
18103;DHT22;9178;51.120;6.192;2022-08-01T04:30:34;19.40;99.90
18103;DHT22;9178;51.120;6.192;2022-08-01T04:33:04;19.40;99.90
18103;DHT22;9178;51.120;6.192;2022-08-01T04:35:32;19.40;99.90
18103;DHT22;9178;51.120;6.192;2022-08-01T04:38:01;19.40;99.90
18103;DHT22;9178;51.120;6.192;2022-08-01T04:40:29;19.40;99.90
18103;DHT22;9178;51.120;6.192;2022-08-01T04:42:57;19.40;99.90
18103;DHT22;9178;51.120;6.192;2022-08-01T04:45:26;19.40;99.90
18103;DHT22;9178;51.120;6.192;2022-08-01T04:47:53;19.40;99.90
18103;DHT22;9178;51.120;6.192;2022-08-01T04:50:20;19.40;99.90
18103;DHT22;9178;51.120;6.192;2022-08-01T04:52:48;19.40;99.90
18103;DHT22;9178;51.120;6.192;2022-08-01T04:55:16;19.40;99.90
18103;DHT22;9178;51.120;6.192;2022-08-01T04:57:44;19.40;99.90
18103;DHT22;9178;51.120;6.192;2022-08-01T05:00:12;19.40;99.90
18103;DHT22;9178;51.120;6.192;2022-08-01T05:02:40;19.40;99.90
18103;DHT22;9178;51.120;6.192;2022-08-01T05:05:08;19.30;99.90
18103;DHT22;9178;51.120;6.192;2022-08-01T05:07:36;19.40;99.90
18103;DHT22;9178;51.120;6.192;2022-08-01T05:10:03;19.40;99.90
18103;DHT22;9178;51.120;6.192;2022-08-01T05:12:30;19.40;99.90
18103;DHT22;9178;51.120;6.192;2022-08-01T05:14:58;19.50;99.90
18103;DHT22;9178;51.120;6.192;2022-08-01T05:17:25;19.50;99.90
18103;DHT22;9178;51.120;6.192;2022-08-01T05:19:53;19.50;99.90
18103;DHT22;9178;51.120;6.192;2022-08-01T05:22:20;19.50;99.90
18103;DHT22;9178;51.120;6.192;2022-08-01T05:24:47;19.50;99.90
18103;DHT22;9178;51.120;6.192;2022-08-01T05:27:14;19.50;99.90
18103;DHT22;9178;51.120;6.192;2022-08-01T05:29:41;19.60;99.90
18103;DHT22;9178;51.120;6.192;2022-08-01T05:32:08;19.60;99.90
18103;DHT22;9178;51.120;6.192;2022-08-01T05:34:35;19.60;99.90
18103;DHT22;9178;51.120;6.192;2022-08-01T05:37:03;19.60;99.90
18103;DHT22;9178;51.120;6.192;2022-08-01T05:39:30;19.70;99.90
18103;DHT22;9178;51.120;6.192;2022-08-01T05:41:57;19.70;99.90
18103;DHT22;9178;51.120;6.192;2022-08-01T05:44:24;19.80;99.90
18103;DHT22;9178;51.120;6.192;2022-08-01T05:46:51;19.80;99.90
18103;DHT22;9178;51.120;6.192;2022-08-01T05:49:18;19.90;99.90
18103;DHT22;9178;51.120;6.192;2022-08-01T05:51:44;19.90;99.90
18103;DHT22;9178;51.120;6.192;2022-08-01T05:54:13;20.00;99.90
18103;DHT22;9178;51.120;6.192;2022-08-01T05:56:39;20.00;99.90
18103;DHT22;9178;51.120;6.192;2022-08-01T05:59:06;20.00;99.90
18103;DHT22;9178;51.120;6.192;2022-08-01T06:01:33;20.00;99.90
18103;DHT22;9178;51.120;6.192;2022-08-01T06:04:00;20.10;99.90
18103;DHT22;9178;51.120;6.192;2022-08-01T06:06:26;20.10;99.90
18103;DHT22;9178;51.120;6.192;2022-08-01T06:08:53;20.10;99.90
18103;DHT22;9178;51.120;6.192;2022-08-01T06:11:21;20.20;99.90
18103;DHT22;9178;51.120;6.192;2022-08-01T06:13:48;20.20;99.90
18103;DHT22;9178;51.120;6.192;2022-08-01T06:16:15;20.30;99.90
18103;DHT22;9178;51.120;6.192;2022-08-01T06:18:42;20.30;99.90
18103;DHT22;9178;51.120;6.192;2022-08-01T06:21:09;20.40;99.90
18103;DHT22;9178;51.120;6.192;2022-08-01T06:23:35;20.40;99.90
18103;DHT22;9178;51.120;6.192;2022-08-01T06:26:02;20.40;99.90
18103;DHT22;9178;51.120;6.192;2022-08-01T06:28:30;20.50;99.90
18103;DHT22;9178;51.120;6.192;2022-08-01T06:30:57;20.50;99.90
18103;DHT22;9178;51.120;6.192;2022-08-01T06:33:25;20.50;99.90
18103;DHT22;9178;51.120;6.192;2022-08-01T06:35:52;20.50;99.90
18103;DHT22;9178;51.120;6.192;2022-08-01T06:38:19;20.50;99.90
18103;DHT22;9178;51.120;6.192;2022-08-01T06:40:46;20.50;99.90
18103;DHT22;9178;51.120;6.192;2022-08-01T06:43:13;20.50;99.90
18103;DHT22;9178;51.120;6.192;2022-08-01T06:45:42;20.50;99.90
18103;DHT22;9178;51.120;6.192;2022-08-01T06:48:08;20.60;99.90
18103;DHT22;9178;51.120;6.192;2022-08-01T06:50:35;20.60;99.90
18103;DHT22;9178;51.120;6.192;2022-08-01T06:53:02;20.60;99.90
18103;DHT22;9178;51.120;6.192;2022-08-01T06:55:29;20.70;99.90
18103;DHT22;9178;51.120;6.192;2022-08-01T06:57:56;20.70;99.90
18103;DHT22;9178;51.120;6.192;2022-08-01T07:00:24;20.70;99.90
18103;DHT22;9178;51.120;6.192;2022-08-01T07:02:54;20.80;99.90
18103;DHT22;9178;51.120;6.192;2022-08-01T07:05:22;20.90;99.90
18103;DHT22;9178;51.120;6.192;2022-08-01T07:07:49;21.10;99.90
18103;DHT22;9178;51.120;6.192;2022-08-01T07:10:16;21.20;99.90
18103;DHT22;9178;51.120;6.192;2022-08-01T07:12:43;21.40;99.90
18103;DHT22;9178;51.120;6.192;2022-08-01T07:15:11;21.50;99.90
18103;DHT22;9178;51.120;6.192;2022-08-01T07:17:38;21.60;99.90
18103;DHT22;9178;51.120;6.192;2022-08-01T07:20:08;21.60;99.90
18103;DHT22;9178;51.120;6.192;2022-08-01T07:22:35;21.70;99.90
18103;DHT22;9178;51.120;6.192;2022-08-01T07:25:04;21.70;99.90
18103;DHT22;9178;51.120;6.192;2022-08-01T07:27:31;21.90;99.90
18103;DHT22;9178;51.120;6.192;2022-08-01T07:29:58;22.00;99.90
18103;DHT22;9178;51.120;6.192;2022-08-01T07:32:25;22.00;99.90
18103;DHT22;9178;51.120;6.192;2022-08-01T07:34:51;22.10;99.90
18103;DHT22;9178;51.120;6.192;2022-08-01T07:37:19;22.10;99.90
18103;DHT22;9178;51.120;6.192;2022-08-01T07:39:46;22.10;99.90
18103;DHT22;9178;51.120;6.192;2022-08-01T07:42:13;22.10;99.90
18103;DHT22;9178;51.120;6.192;2022-08-01T07:44:40;22.20;99.90
18103;DHT22;9178;51.120;6.192;2022-08-01T07:47:07;22.20;99.90
18103;DHT22;9178;51.120;6.192;2022-08-01T07:49:34;22.20;99.90
18103;DHT22;9178;51.120;6.192;2022-08-01T07:52:01;22.20;99.90
18103;DHT22;9178;51.120;6.192;2022-08-01T07:54:30;22.30;99.90
18103;DHT22;9178;51.120;6.192;2022-08-01T07:56:56;22.30;99.90
18103;DHT22;9178;51.120;6.192;2022-08-01T07:59:23;22.40;99.90
18103;DHT22;9178;51.120;6.192;2022-08-01T08:01:50;22.40;99.90
18103;DHT22;9178;51.120;6.192;2022-08-01T08:04:17;22.40;99.90
18103;DHT22;9178;51.120;6.192;2022-08-01T08:06:44;22.30;99.90
18103;DHT22;9178;51.120;6.192;2022-08-01T08:09:13;22.30;99.90
18103;DHT22;9178;51.120;6.192;2022-08-01T08:11:41;22.30;99.90
18103;DHT22;9178;51.120;6.192;2022-08-01T08:14:08;22.20;99.90
18103;DHT22;9178;51.120;6.192;2022-08-01T08:16:35;22.20;99.90
18103;DHT22;9178;51.120;6.192;2022-08-01T08:19:02;22.20;99.90
18103;DHT22;9178;51.120;6.192;2022-08-01T08:21:29;22.20;99.90
18103;DHT22;9178;51.120;6.192;2022-08-01T08:23:55;22.10;99.90
18103;DHT22;9178;51.120;6.192;2022-08-01T08:26:41;22.20;99.90
18103;DHT22;9178;51.120;6.192;2022-08-01T08:29:08;22.30;99.90
18103;DHT22;9178;51.120;6.192;2022-08-01T08:31:35;22.30;99.90
18103;DHT22;9178;51.120;6.192;2022-08-01T08:34:01;22.40;99.90
18103;DHT22;9178;51.120;6.192;2022-08-01T08:36:28;22.60;99.90
18103;DHT22;9178;51.120;6.192;2022-08-01T08:38:55;22.70;99.90
18103;DHT22;9178;51.120;6.192;2022-08-01T08:41:22;22.80;99.90
18103;DHT22;9178;51.120;6.192;2022-08-01T08:43:50;23.00;99.90
18103;DHT22;9178;51.120;6.192;2022-08-01T08:46:18;23.10;99.90
18103;DHT22;9178;51.120;6.192;2022-08-01T08:48:46;23.30;99.90
18103;DHT22;9178;51.120;6.192;2022-08-01T08:51:16;23.30;99.90
18103;DHT22;9178;51.120;6.192;2022-08-01T08:53:44;23.30;99.90
18103;DHT22;9178;51.120;6.192;2022-08-01T08:56:13;23.20;99.90
18103;DHT22;9178;51.120;6.192;2022-08-01T08:58:41;23.30;99.90
18103;DHT22;9178;51.120;6.192;2022-08-01T09:01:12;23.40;99.90
18103;DHT22;9178;51.120;6.192;2022-08-01T09:03:39;23.40;99.90
18103;DHT22;9178;51.120;6.192;2022-08-01T09:06:06;23.80;99.90
18103;DHT22;9178;51.120;6.192;2022-08-01T09:08:33;24.20;99.90
18103;DHT22;9178;51.120;6.192;2022-08-01T09:11:00;24.40;99.90
18103;DHT22;9178;51.120;6.192;2022-08-01T09:13:27;24.30;99.90
18103;DHT22;9178;51.120;6.192;2022-08-01T09:15:55;24.10;99.90
18103;DHT22;9178;51.120;6.192;2022-08-01T09:18:40;24.10;99.90
18103;DHT22;9178;51.120;6.192;2022-08-01T09:21:15;24.40;99.90
18103;DHT22;9178;51.120;6.192;2022-08-01T09:23:44;24.50;99.90
18103;DHT22;9178;51.120;6.192;2022-08-01T09:26:12;24.50;99.90
18103;DHT22;9178;51.120;6.192;2022-08-01T09:28:39;24.60;99.90
18103;DHT22;9178;51.120;6.192;2022-08-01T09:31:07;24.80;99.90
18103;DHT22;9178;51.120;6.192;2022-08-01T09:33:49;25.00;99.90
18103;DHT22;9178;51.120;6.192;2022-08-01T09:36:17;25.30;99.90
18103;DHT22;9178;51.120;6.192;2022-08-01T09:38:44;25.40;99.90
18103;DHT22;9178;51.120;6.192;2022-08-01T09:41:11;25.40;99.90
18103;DHT22;9178;51.120;6.192;2022-08-01T09:43:38;25.50;99.90
18103;DHT22;9178;51.120;6.192;2022-08-01T09:46:08;25.70;99.90
18103;DHT22;9178;51.120;6.192;2022-08-01T09:48:36;25.90;99.90
18103;DHT22;9178;51.120;6.192;2022-08-01T09:51:06;25.80;99.90
18103;DHT22;9178;51.120;6.192;2022-08-01T09:53:45;25.80;99.90
18103;DHT22;9178;51.120;6.192;2022-08-01T09:56:12;25.80;99.90
18103;DHT22;9178;51.120;6.192;2022-08-01T09:58:56;25.90;99.90
18103;DHT22;9178;51.120;6.192;2022-08-01T10:01:23;26.00;99.90
18103;DHT22;9178;51.120;6.192;2022-08-01T10:04:09;26.00;99.90
18103;DHT22;9178;51.120;6.192;2022-08-01T10:06:38;25.80;99.90
18103;DHT22;9178;51.120;6.192;2022-08-01T10:09:05;26.00;99.90
18103;DHT22;9178;51.120;6.192;2022-08-01T10:11:32;26.30;99.90
18103;DHT22;9178;51.120;6.192;2022-08-01T10:13:59;26.50;99.90
18103;DHT22;9178;51.120;6.192;2022-08-01T10:16:28;26.50;99.90
18103;DHT22;9178;51.120;6.192;2022-08-01T10:18:55;26.60;99.90
18103;DHT22;9178;51.120;6.192;2022-08-01T10:21:23;26.60;99.90
18103;DHT22;9178;51.120;6.192;2022-08-01T10:23:54;26.50;99.90
18103;DHT22;9178;51.120;6.192;2022-08-01T10:26:25;26.40;99.90
18103;DHT22;9178;51.120;6.192;2022-08-01T10:28:54;26.50;99.90
18103;DHT22;9178;51.120;6.192;2022-08-01T10:31:22;26.60;99.90
18103;DHT22;9178;51.120;6.192;2022-08-01T10:33:50;26.70;99.90
18103;DHT22;9178;51.120;6.192;2022-08-01T10:36:18;26.70;99.90
18103;DHT22;9178;51.120;6.192;2022-08-01T10:38:47;26.60;99.90
18103;DHT22;9178;51.120;6.192;2022-08-01T10:41:15;26.50;99.90
18103;DHT22;9178;51.120;6.192;2022-08-01T10:43:44;26.60;99.90
18103;DHT22;9178;51.120;6.192;2022-08-01T10:46:11;26.70;99.90
18103;DHT22;9178;51.120;6.192;2022-08-01T10:48:43;27.00;99.90
18103;DHT22;9178;51.120;6.192;2022-08-01T10:51:12;26.90;99.90
18103;DHT22;9178;51.120;6.192;2022-08-01T10:53:46;27.00;99.90
18103;DHT22;9178;51.120;6.192;2022-08-01T10:56:14;27.40;99.90
18103;DHT22;9178;51.120;6.192;2022-08-01T10:58:43;28.10;99.90
18103;DHT22;9178;51.120;6.192;2022-08-01T11:01:24;28.80;99.90
18103;DHT22;9178;51.120;6.192;2022-08-01T11:04:05;28.90;99.90
18103;DHT22;9178;51.120;6.192;2022-08-01T11:06:46;29.10;99.90
18103;DHT22;9178;51.120;6.192;2022-08-01T11:09:24;29.50;99.90
18103;DHT22;9178;51.120;6.192;2022-08-01T11:12:00;30.00;99.90
18103;DHT22;9178;51.120;6.192;2022-08-01T11:14:29;30.60;99.90
18103;DHT22;9178;51.120;6.192;2022-08-01T11:17:32;31.20;99.90
18103;DHT22;9178;51.120;6.192;2022-08-01T11:20:07;31.50;99.90
18103;DHT22;9178;51.120;6.192;2022-08-01T11:26:19;31.70;97.90
18103;DHT22;9178;51.120;6.192;2022-08-01T11:29:15;31.80;99.30
18103;DHT22;9178;51.120;6.192;2022-08-01T11:31:42;32.00;98.40
18103;DHT22;9178;51.120;6.192;2022-08-01T11:34:09;32.40;95.90
18103;DHT22;9178;51.120;6.192;2022-08-01T11:36:36;32.60;97.60
18103;DHT22;9178;51.120;6.192;2022-08-01T11:39:14;33.10;96.40
18103;DHT22;9178;51.120;6.192;2022-08-01T11:41:42;33.20;93.10
18103;DHT22;9178;51.120;6.192;2022-08-01T11:44:12;33.00;94.90
18103;DHT22;9178;51.120;6.192;2022-08-01T11:46:59;32.90;94.00
18103;DHT22;9178;51.120;6.192;2022-08-01T11:49:31;33.10;93.00
18103;DHT22;9178;51.120;6.192;2022-08-01T11:52:05;32.80;93.30
18103;DHT22;9178;51.120;6.192;2022-08-01T11:54:33;32.60;94.10
18103;DHT22;9178;51.120;6.192;2022-08-01T11:57:04;32.70;92.80
18103;DHT22;9178;51.120;6.192;2022-08-01T11:59:41;32.80;93.60
18103;DHT22;9178;51.120;6.192;2022-08-01T12:02:25;32.90;92.10
18103;DHT22;9178;51.120;6.192;2022-08-01T12:04:57;32.90;91.60
18103;DHT22;9178;51.120;6.192;2022-08-01T12:07:28;33.30;92.00
18103;DHT22;9178;51.120;6.192;2022-08-01T12:10:00;33.50;86.60
18103;DHT22;9178;51.120;6.192;2022-08-01T12:12:30;32.90;86.70
18103;DHT22;9178;51.120;6.192;2022-08-01T12:14:59;32.70;89.60
18103;DHT22;9178;51.120;6.192;2022-08-01T12:17:31;32.80;86.10
18103;DHT22;9178;51.120;6.192;2022-08-01T12:19:58;33.10;89.00
18103;DHT22;9178;51.120;6.192;2022-08-01T12:22:25;32.90;88.90
18103;DHT22;9178;51.120;6.192;2022-08-01T12:24:52;33.10;83.70
18103;DHT22;9178;51.120;6.192;2022-08-01T12:27:27;33.60;83.20
18103;DHT22;9178;51.120;6.192;2022-08-01T12:29:54;33.80;83.10
18103;DHT22;9178;51.120;6.192;2022-08-01T12:32:25;33.90;80.80
18103;DHT22;9178;51.120;6.192;2022-08-01T12:34:54;34.00;85.20
18103;DHT22;9178;51.120;6.192;2022-08-01T12:37:21;34.00;77.90
18103;DHT22;9178;51.120;6.192;2022-08-01T12:39:48;33.50;80.10
18103;DHT22;9178;51.120;6.192;2022-08-01T12:42:15;33.10;80.10
18103;DHT22;9178;51.120;6.192;2022-08-01T12:44:44;33.00;78.80
18103;DHT22;9178;51.120;6.192;2022-08-01T12:47:11;32.60;79.30
18103;DHT22;9178;51.120;6.192;2022-08-01T12:49:42;32.40;77.30
18103;DHT22;9178;51.120;6.192;2022-08-01T12:52:10;31.90;77.80
18103;DHT22;9178;51.120;6.192;2022-08-01T12:54:59;31.70;81.90
18103;DHT22;9178;51.120;6.192;2022-08-01T12:57:26;31.50;82.30
18103;DHT22;9178;51.120;6.192;2022-08-01T12:59:53;31.40;83.60
18103;DHT22;9178;51.120;6.192;2022-08-01T13:02:32;31.60;84.70
18103;DHT22;9178;51.120;6.192;2022-08-01T13:05:00;32.00;82.90
18103;DHT22;9178;51.120;6.192;2022-08-01T13:07:35;32.20;80.50
18103;DHT22;9178;51.120;6.192;2022-08-01T13:10:03;32.10;81.80
18103;DHT22;9178;51.120;6.192;2022-08-01T13:12:30;31.70;79.70
18103;DHT22;9178;51.120;6.192;2022-08-01T13:14:57;31.30;80.60
18103;DHT22;9178;51.120;6.192;2022-08-01T13:17:31;30.80;81.10
18103;DHT22;9178;51.120;6.192;2022-08-01T13:19:57;30.80;82.30
18103;DHT22;9178;51.120;6.192;2022-08-01T13:22:33;30.90;82.40
18103;DHT22;9178;51.120;6.192;2022-08-01T13:25:11;30.80;80.50
18103;DHT22;9178;51.120;6.192;2022-08-01T13:27:38;30.70;83.90
18103;DHT22;9178;51.120;6.192;2022-08-01T13:30:12;30.50;84.20
18103;DHT22;9178;51.120;6.192;2022-08-01T13:32:40;30.20;84.60
18103;DHT22;9178;51.120;6.192;2022-08-01T13:35:09;30.10;86.50
18103;DHT22;9178;51.120;6.192;2022-08-01T13:37:40;29.90;89.60
18103;DHT22;9178;51.120;6.192;2022-08-01T13:40:08;30.10;90.60
18103;DHT22;9178;51.120;6.192;2022-08-01T13:42:35;30.50;91.40
18103;DHT22;9178;51.120;6.192;2022-08-01T13:45:03;30.50;91.20
18103;DHT22;9178;51.120;6.192;2022-08-01T13:47:32;30.60;91.40
18103;DHT22;9178;51.120;6.192;2022-08-01T13:49:59;30.50;91.60
18103;DHT22;9178;51.120;6.192;2022-08-01T13:52:28;30.40;92.10
18103;DHT22;9178;51.120;6.192;2022-08-01T13:54:56;30.50;91.80
18103;DHT22;9178;51.120;6.192;2022-08-01T13:57:23;30.50;91.50
18103;DHT22;9178;51.120;6.192;2022-08-01T13:59:50;30.50;91.90
18103;DHT22;9178;51.120;6.192;2022-08-01T14:02:17;30.30;91.60
18103;DHT22;9178;51.120;6.192;2022-08-01T14:04:44;30.00;91.80
18103;DHT22;9178;51.120;6.192;2022-08-01T14:07:11;29.90;92.00
18103;DHT22;9178;51.120;6.192;2022-08-01T14:09:37;29.80;92.10
18103;DHT22;9178;51.120;6.192;2022-08-01T14:12:06;29.70;92.40
18103;DHT22;9178;51.120;6.192;2022-08-01T14:14:33;29.70;92.70
18103;DHT22;9178;51.120;6.192;2022-08-01T14:17:01;29.70;92.40
18103;DHT22;9178;51.120;6.192;2022-08-01T14:19:28;29.60;92.40
18103;DHT22;9178;51.120;6.192;2022-08-01T14:21:54;29.50;92.20
18103;DHT22;9178;51.120;6.192;2022-08-01T14:24:22;29.40;93.20
18103;DHT22;9178;51.120;6.192;2022-08-01T14:26:49;29.50;93.10
18103;DHT22;9178;51.120;6.192;2022-08-01T14:29:17;29.60;92.70
18103;DHT22;9178;51.120;6.192;2022-08-01T14:31:44;29.60;92.80
18103;DHT22;9178;51.120;6.192;2022-08-01T14:34:11;29.70;92.90
18103;DHT22;9178;51.120;6.192;2022-08-01T14:36:38;29.90;93.50
18103;DHT22;9178;51.120;6.192;2022-08-01T14:39:05;30.20;92.70
18103;DHT22;9178;51.120;6.192;2022-08-01T14:41:32;30.40;91.70
18103;DHT22;9178;51.120;6.192;2022-08-01T14:43:59;30.40;92.30
18103;DHT22;9178;51.120;6.192;2022-08-01T14:46:27;30.70;91.90
18103;DHT22;9178;51.120;6.192;2022-08-01T14:48:57;30.90;91.40
18103;DHT22;9178;51.120;6.192;2022-08-01T14:51:24;30.50;91.20
18103;DHT22;9178;51.120;6.192;2022-08-01T14:53:50;30.30;91.70
18103;DHT22;9178;51.120;6.192;2022-08-01T14:56:18;30.30;91.90
18103;DHT22;9178;51.120;6.192;2022-08-01T14:58:45;30.40;91.60
18103;DHT22;9178;51.120;6.192;2022-08-01T15:01:12;30.50;91.20
18103;DHT22;9178;51.120;6.192;2022-08-01T15:03:40;30.50;91.40
18103;DHT22;9178;51.120;6.192;2022-08-01T15:06:07;30.80;91.00
18103;DHT22;9178;51.120;6.192;2022-08-01T15:08:39;30.90;90.60
18103;DHT22;9178;51.120;6.192;2022-08-01T15:11:05;31.20;90.20
18103;DHT22;9178;51.120;6.192;2022-08-01T15:13:36;31.40;90.30
18103;DHT22;9178;51.120;6.192;2022-08-01T15:16:03;31.10;87.80
18103;DHT22;9178;51.120;6.192;2022-08-01T15:18:30;30.60;87.10
18103;DHT22;9178;51.120;6.192;2022-08-01T15:20:58;30.30;90.10
18103;DHT22;9178;51.120;6.192;2022-08-01T15:23:25;30.20;90.30
18103;DHT22;9178;51.120;6.192;2022-08-01T15:25:52;30.30;90.20
18103;DHT22;9178;51.120;6.192;2022-08-01T15:28:18;30.50;89.40
18103;DHT22;9178;51.120;6.192;2022-08-01T15:30:45;30.50;89.60
18103;DHT22;9178;51.120;6.192;2022-08-01T15:33:12;30.40;87.10
18103;DHT22;9178;51.120;6.192;2022-08-01T15:35:39;30.10;88.70
18103;DHT22;9178;51.120;6.192;2022-08-01T15:38:09;30.00;90.20
18103;DHT22;9178;51.120;6.192;2022-08-01T15:40:36;30.00;90.10
18103;DHT22;9178;51.120;6.192;2022-08-01T15:43:03;30.30;89.80
18103;DHT22;9178;51.120;6.192;2022-08-01T15:45:30;30.50;86.70
18103;DHT22;9178;51.120;6.192;2022-08-01T15:47:57;30.30;88.40
18103;DHT22;9178;51.120;6.192;2022-08-01T15:50:24;30.00;88.70
18103;DHT22;9178;51.120;6.192;2022-08-01T15:52:51;30.00;88.00
18103;DHT22;9178;51.120;6.192;2022-08-01T15:55:20;29.80;88.00
18103;DHT22;9178;51.120;6.192;2022-08-01T15:57:46;29.70;89.50
18103;DHT22;9178;51.120;6.192;2022-08-01T16:00:14;29.40;89.30